createdAt,value
2022-11-30T00:03:44.789Z,13.50
2022-11-30T00:08:48.669Z,12.88
2022-11-30T00:13:51.041Z,12.68
2022-11-30T00:18:53.778Z,12.13
2022-11-30T00:23:57.569Z,13.15
2022-11-30T00:29:00.068Z,13.35
2022-11-30T00:34:04.022Z,12.90
2022-11-30T00:39:08.039Z,12.95
2022-11-30T00:44:10.365Z,12.32
2022-11-30T00:49:12.760Z,13.70
2022-11-30T00:54:16.729Z,12.85
2022-11-30T00:59:22.251Z,12.50
2022-11-30T01:04:24.540Z,13.90
2022-11-30T01:09:28.413Z,14.65
2022-11-30T01:14:30.605Z,13.13
2022-11-30T01:19:32.988Z,13.52
2022-11-30T01:24:36.741Z,12.50
2022-11-30T01:29:38.963Z,12.90
2022-11-30T01:34:41.297Z,12.90
2022-11-30T01:39:45.168Z,12.93
2022-11-30T01:44:53.971Z,12.85
2022-11-30T01:50:01.951Z,12.63
2022-11-30T01:55:14.875Z,11.95
2022-11-30T02:00:18.207Z,12.00
2022-11-30T02:05:23.165Z,10.10
2022-11-30T02:10:30.360Z,12.52
2022-11-30T02:21:00.090Z,11.77
2022-11-30T02:26:18.574Z,12.02
2022-11-30T02:31:27.011Z,12.60
2022-11-30T02:36:31.062Z,12.20
2022-11-30T02:41:38.183Z,13.55
2022-11-30T02:46:53.943Z,14.38
2022-11-30T02:51:58.157Z,13.15
2022-11-30T02:57:00.476Z,13.02
2022-11-30T03:02:04.235Z,14.10
2022-11-30T03:07:06.510Z,12.63
2022-11-30T03:12:08.890Z,12.90
2022-11-30T03:17:12.788Z,13.65
2022-11-30T03:22:15.079Z,13.20
2022-11-30T03:27:17.538Z,13.27
2022-11-30T03:32:21.396Z,13.63
2022-11-30T03:37:23.656Z,12.43
2022-11-30T03:42:26.023Z,12.07
2022-11-30T03:47:29.880Z,12.00
2022-11-30T03:52:32.162Z,13.07
2022-11-30T03:57:34.444Z,13.35
2022-11-30T04:02:44.271Z,14.30
2022-11-30T04:07:47.453Z,14.32
2022-11-30T04:12:49.745Z,14.93
2022-11-30T04:17:53.524Z,15.38
2022-11-30T04:22:57.851Z,15.90
2022-11-30T04:28:00.117Z,16.45
2022-11-30T04:33:04.726Z,16.85
2022-11-30T04:38:07.021Z,17.55
2022-11-30T04:43:10.062Z,20.27
2022-11-30T04:48:14.741Z,20.30
2022-11-30T04:53:17.087Z,19.98
2022-11-30T04:58:19.497Z,20.20
2022-11-30T05:03:23.694Z,20.20
2022-11-30T05:08:26.074Z,19.25
2022-11-30T05:13:29.070Z,19.17
2022-11-30T05:18:33.060Z,19.13
2022-11-30T05:23:35.278Z,18.10
2022-11-30T05:28:39.690Z,19.52
2022-11-30T05:33:43.483Z,19.13
2022-11-30T05:38:46.107Z,18.27
2022-11-30T05:43:48.530Z,18.38
2022-11-30T05:48:52.346Z,20.23
2022-11-30T05:54:00.571Z,18.25
2022-11-30T05:59:02.874Z,20.00
2022-11-30T06:04:09.025Z,19.00
2022-11-30T06:09:11.700Z,19.57
2022-11-30T06:14:25.339Z,19.05
2022-11-30T06:19:29.134Z,22.40
2022-11-30T06:24:31.426Z,20.50
2022-11-30T06:29:33.740Z,23.27
2022-11-30T06:34:37.565Z,22.27
2022-11-30T06:45:07.067Z,21.05
2022-11-30T06:50:13.069Z,24.92
2022-11-30T06:55:16.959Z,26.75
2022-11-30T07:00:19.866Z,28.50
2022-11-30T07:05:23.696Z,25.35
2022-11-30T07:10:26.059Z,26.63
2022-11-30T07:15:28.507Z,27.70
2022-11-30T07:20:42.107Z,25.02
2022-11-30T07:25:44.378Z,25.25
2022-11-30T07:30:46.715Z,24.77
2022-11-30T07:35:52.547Z,25.02
2022-11-30T07:41:00.937Z,25.05
2022-11-30T07:46:03.943Z,24.50
2022-11-30T07:51:10.811Z,25.95
2022-11-30T07:56:15.081Z,26.60
2022-11-30T08:01:20.044Z,26.75
2022-11-30T08:06:28.156Z,24.60
2022-11-30T08:11:32.207Z,27.92
2022-11-30T08:16:37.296Z,28.13
2022-11-30T08:21:41.289Z,26.45
2022-11-30T08:26:51.772Z,24.90
2022-11-30T08:31:54.163Z,27.20
2022-11-30T08:36:58.120Z,25.98
2022-11-30T08:42:00.744Z,28.00
2022-11-30T08:47:03.286Z,25.60
2022-11-30T08:52:22.695Z,26.33
2022-11-30T08:57:25.783Z,30.63
2022-11-30T09:02:28.259Z,26.92
2022-11-30T09:07:33.191Z,30.13
2022-11-30T09:12:37.950Z,29.50
2022-11-30T09:17:40.399Z,27.23
2022-11-30T09:22:44.354Z,30.23
2022-11-30T09:27:46.739Z,30.10
2022-11-30T09:32:49.130Z,29.83
2022-11-30T09:37:54.640Z,27.52
2022-11-30T09:43:06.874Z,29.80
2022-11-30T09:48:39.795Z,28.05
2022-11-30T09:53:48.201Z,27.77
2022-11-30T09:58:56.327Z,27.70
2022-11-30T10:03:59.331Z,26.90
2022-11-30T10:09:29.775Z,30.40
2022-11-30T10:15:00.349Z,27.65
2022-11-30T10:20:28.529Z,27.90
2022-11-30T10:25:41.062Z,23.77
2022-11-30T10:30:56.607Z,28.58
2022-11-30T10:36:04.839Z,28.85
2022-11-30T10:41:13.803Z,29.52
2022-11-30T10:46:21.993Z,26.67
2022-11-30T10:51:34.354Z,27.85
2022-11-30T10:56:38.317Z,25.42
2022-11-30T11:01:42.002Z,27.30
2022-11-30T11:06:47.076Z,27.42
2022-11-30T11:11:54.316Z,26.48
2022-11-30T11:22:03.128Z,24.13
2022-11-30T11:27:07.107Z,26.55
2022-11-30T11:32:21.389Z,26.40
2022-11-30T11:37:25.746Z,26.88
2022-11-30T11:42:32.262Z,26.08
2022-11-30T11:47:39.795Z,22.73
2022-11-30T11:52:44.907Z,25.25
2022-11-30T11:57:53.398Z,23.73
2022-11-30T12:03:01.549Z,25.65
2022-11-30T12:08:11.762Z,26.38
2022-11-30T12:13:18.406Z,27.30
2022-11-30T12:18:24.583Z,25.63
2022-11-30T12:23:46.513Z,26.97
2022-11-30T12:29:04.917Z,27.13
2022-11-30T12:34:14.036Z,28.00
2022-11-30T12:39:26.385Z,27.70
2022-11-30T12:44:47.063Z,29.08
2022-11-30T12:50:06.055Z,27.50
2022-11-30T12:55:25.084Z,27.75
2022-11-30T13:00:37.624Z,29.65
2022-11-30T13:05:45.934Z,25.67
2022-11-30T13:10:57.354Z,26.50
2022-11-30T13:16:04.854Z,26.65
2022-11-30T13:21:17.093Z,26.63
2022-11-30T13:26:27.160Z,28.02
2022-11-30T13:31:39.516Z,28.42
2022-11-30T13:36:43.797Z,27.75
2022-11-30T13:41:48.118Z,29.38
2022-11-30T13:46:53.378Z,29.25
2022-11-30T13:52:21.522Z,28.17
2022-11-30T13:58:02.708Z,29.17
2022-11-30T14:03:28.664Z,28.80
2022-11-30T14:08:37.020Z,28.65
2022-11-30T14:13:45.842Z,28.67
2022-11-30T14:18:49.975Z,24.80
2022-11-30T14:23:57.772Z,28.35
2022-11-30T14:29:17.903Z,29.83
2022-11-30T14:34:24.562Z,27.27
2022-11-30T14:39:34.421Z,28.60
2022-11-30T14:44:40.849Z,27.40
2022-11-30T14:49:52.692Z,28.27
2022-11-30T14:55:04.522Z,26.73
2022-11-30T15:00:14.745Z,27.70
2022-11-30T15:05:29.980Z,28.50
2022-11-30T15:10:33.714Z,26.25
2022-11-30T15:15:41.411Z,26.63
2022-11-30T15:20:51.306Z,25.55
2022-11-30T15:25:58.230Z,25.55
2022-11-30T15:31:04.593Z,26.00
2022-11-30T15:36:40.693Z,27.53
2022-11-30T15:41:35.279Z,26.67
2022-11-30T15:46:46.401Z,27.33
2022-11-30T15:52:00.878Z,26.83
2022-11-30T15:57:09.420Z,29.02
2022-11-30T16:02:27.867Z,25.90
2022-11-30T16:07:34.692Z,26.88
2022-11-30T16:12:37.102Z,25.50
2022-11-30T16:17:41.586Z,27.45
2022-11-30T16:22:48.897Z,25.85
2022-11-30T16:27:51.887Z,27.25
2022-11-30T16:32:54.374Z,26.75
2022-11-30T16:37:58.015Z,28.55
2022-11-30T16:43:00.696Z,28.20
2022-11-30T16:48:03.483Z,28.60
2022-11-30T16:53:11.959Z,27.13
2022-11-30T16:58:14.160Z,25.90
2022-11-30T17:03:23.256Z,28.50
2022-11-30T17:08:27.248Z,26.10
2022-11-30T17:13:29.538Z,29.17
2022-11-30T17:18:31.791Z,27.55
2022-11-30T17:23:35.787Z,28.02
2022-11-30T17:28:38.087Z,28.83
2022-11-30T17:33:46.456Z,27.48
2022-11-30T17:38:51.966Z,27.60
2022-11-30T17:43:54.260Z,27.73
2022-11-30T17:48:56.465Z,27.23
2022-11-30T17:54:00.098Z,28.00
2022-11-30T17:59:05.198Z,27.95
2022-11-30T18:04:07.393Z,27.77
2022-11-30T18:09:11.127Z,29.02
2022-11-30T18:14:13.334Z,27.73
2022-11-30T18:19:15.504Z,29.20
2022-11-30T18:24:23.911Z,30.88
2022-11-30T18:29:28.107Z,31.05
2022-11-30T18:34:30.380Z,33.97
2022-11-30T18:39:35.817Z,31.45
2022-11-30T18:44:38.057Z,29.98
2022-11-30T18:49:40.585Z,29.73
2022-11-30T18:54:46.544Z,30.00
2022-11-30T18:59:53.650Z,29.80
2022-11-30T19:04:56.325Z,30.58
2022-11-30T19:10:00.095Z,32.60
2022-11-30T19:15:02.442Z,33.45
2022-11-30T19:20:05.537Z,33.70
2022-11-30T19:25:10.318Z,29.30
2022-11-30T19:30:15.186Z,34.25
2022-11-30T19:35:17.498Z,35.30
2022-11-30T19:40:21.154Z,35.05
2022-11-30T19:45:23.628Z,37.17
2022-11-30T19:50:26.126Z,35.53
2022-11-30T19:55:29.792Z,31.85
2022-11-30T20:00:32.093Z,33.90
2022-11-30T20:05:35.272Z,32.83
2022-11-30T20:10:40.523Z,33.00
2022-11-30T20:15:43.047Z,36.35
2022-11-30T20:20:45.627Z,29.75
2022-11-30T20:25:49.408Z,30.10
2022-11-30T20:30:54.892Z,29.77
2022-11-30T20:35:57.706Z,29.40
2022-11-30T20:41:04.945Z,26.33
2022-11-30T20:46:15.566Z,28.98
2022-11-30T20:51:30.705Z,29.10
2022-11-30T20:56:38.038Z,31.87
2022-11-30T21:01:43.528Z,27.70
2022-11-30T21:06:46.751Z,27.90
2022-11-30T21:26:58.826Z,26.60
2022-11-30T21:32:02.352Z,26.23
2022-11-30T21:37:04.541Z,30.13
2022-11-30T21:42:06.578Z,28.90
2022-11-30T21:47:10.104Z,26.50
2022-11-30T21:52:12.173Z,27.33
2022-11-30T21:57:14.281Z,25.90
2022-11-30T22:02:17.835Z,26.60
2022-11-30T22:07:20.040Z,29.02
2022-11-30T22:12:22.202Z,28.15
2022-11-30T22:17:25.723Z,26.65
2022-11-30T22:22:30.510Z,28.90
2022-11-30T22:27:36.008Z,26.67
2022-11-30T22:32:43.351Z,26.08
2022-11-30T22:37:45.918Z,26.52
2022-11-30T22:42:48.030Z,27.38
2022-11-30T22:47:51.515Z,27.42
2022-11-30T22:53:06.698Z,30.08
2022-11-30T22:58:08.757Z,32.00
2022-11-30T23:03:12.403Z,28.27
2022-11-30T23:08:14.640Z,28.98
2022-11-30T23:13:16.898Z,31.42
2022-11-30T23:18:20.630Z,31.30
2022-11-30T23:23:22.863Z,31.25
2022-11-30T23:28:24.958Z,31.38
2022-11-30T23:33:28.463Z,32.53
2022-11-30T23:38:30.607Z,30.52
2022-11-30T23:43:33.536Z,31.25
2022-11-30T23:48:37.479Z,31.42
2022-11-30T23:53:39.516Z,33.20
2022-11-30T23:58:42.160Z,31.83
